モンテレー の空港の天気 - METARとTAF

ヘネラル・マリアノ・エソコベド国際空港 ( MMMY / MTY ) - メキシコ ヌエボ・レオン州モンテレー
飛行場実況気象(Metar)
観測時間08/04 16:40 CDT (08/04 21:40 UTC)
風向・風速東 5m/s
視程10km以上
天気現象
少しの雲 雲底高度 910m
少しの雲 雲底高度 6100m
気温33℃
湿度41%
気圧1015hPa
METARMMMY 042140Z 10010KT 15SM FEW030 FEW200 33/18 A2998 RMK 8/501
過去の天気等 Google飛行場航空写真 Wunderground天気予報

過去48時間のMETAR

飛行場予報(TAF)
発表時間: 8/04 12:29 CDT (8/04 17:29 UTC)
予報対象時間: 4日13時 CDT ~ 5日19時 CDT
風向・風速南東 5m/s
視程10km以上
全天の4割程度の雲 雲底高度 910m
4日23時 CDT から
風向・風速南東 3m/s
視程10km以上
天気現象煙霧
全天の4割程度の雲 雲底高度 610m
5日7時 CDT ~ 5日10時 CDT に一時的に
視程4830m
天気現象もや
全天の8割程度の雲 雲底高度 300m
5日14時 CDT から
風向・風速南東 5m/s
視程10km以上
全天の4割程度の雲 雲底高度 910m
TAF MMMY 041729Z 0418/0524 13010KT P6SM SCT030 TX34/0421Z TN23/0512Z
FM050400 13005KT 6SM HZ SCT020
TEMPO 0512/0515 3SM BR BKN010
FM051900 13010KT P6SM SCT030